createdAt,value
2017-12-10T00:00:41.518Z,-1.79
2017-12-10T00:03:10.124Z,-1.72
2017-12-10T00:05:36.005Z,-1.69
2017-12-10T00:10:32.794Z,-1.71
2017-12-10T00:13:00.482Z,-1.69
2017-12-10T00:15:26.326Z,-1.64
2017-12-10T00:17:52.188Z,-1.68
2017-12-10T00:20:18.090Z,-1.76
2017-12-10T00:22:43.908Z,-1.66
2017-12-10T00:25:12.570Z,-1.69
2017-12-10T00:27:38.403Z,-1.70
2017-12-10T00:30:07.404Z,-1.69
2017-12-10T00:32:33.254Z,-1.63
2017-12-10T00:35:02.407Z,-1.61
2017-12-10T00:37:28.280Z,-1.56
2017-12-10T00:39:57.821Z,-1.57
2017-12-10T00:42:23.710Z,-1.50
2017-12-10T00:44:50.892Z,-1.38
2017-12-10T00:47:16.800Z,-1.31
2017-12-10T00:49:45.974Z,-1.31
2017-12-10T00:52:11.879Z,-1.26
2017-12-10T00:54:37.681Z,-1.24
2017-12-10T00:57:03.539Z,-1.24
2017-12-10T00:59:29.437Z,-1.27
2017-12-10T01:01:57.000Z,-1.19
2017-12-10T01:04:22.859Z,-1.17
2017-12-10T01:06:52.406Z,-1.21
2017-12-10T01:09:18.264Z,-1.16
2017-12-10T01:11:47.419Z,-1.30
2017-12-10T01:14:13.262Z,-1.37
2017-12-10T01:16:40.925Z,-1.43
2017-12-10T01:19:06.814Z,-1.63
2017-12-10T01:21:35.742Z,-1.81
2017-12-10T01:24:01.580Z,-1.85
2017-12-10T01:26:31.129Z,-1.84
2017-12-10T01:28:56.983Z,-1.76
2017-12-10T01:31:22.826Z,-1.82
2017-12-10T01:33:48.710Z,-1.84
2017-12-10T01:36:14.568Z,-1.86
2017-12-10T01:38:42.173Z,-1.81
2017-12-10T01:41:08.062Z,-1.81
2017-12-10T01:43:37.155Z,-1.80
2017-12-10T01:46:03.010Z,-1.74
2017-12-10T01:48:32.043Z,-1.78
2017-12-10T01:50:58.085Z,-1.78
2017-12-10T01:53:27.146Z,-1.72
2017-12-10T01:55:52.966Z,-1.71
2017-12-10T01:58:22.439Z,-1.75
2017-12-10T02:00:48.335Z,-1.68
2017-12-10T02:03:17.435Z,-1.65
2017-12-10T02:05:43.288Z,-1.54
2017-12-10T02:08:09.146Z,-1.49
2017-12-10T02:10:35.010Z,-1.52
2017-12-10T02:13:00.873Z,-1.47
2017-12-10T02:15:28.641Z,-1.50
2017-12-10T02:17:54.545Z,-1.55
2017-12-10T02:20:22.616Z,-1.58
2017-12-10T02:22:48.445Z,-1.63
2017-12-10T02:25:16.957Z,-1.65
2017-12-10T02:27:42.810Z,-1.62
2017-12-10T02:30:11.955Z,-1.59
2017-12-10T02:32:37.891Z,-1.56
2017-12-10T02:35:07.065Z,-1.57
2017-12-10T02:37:33.004Z,-1.55
2017-12-10T02:40:02.419Z,-1.50
2017-12-10T02:42:28.290Z,-1.50
2017-12-10T02:44:54.187Z,-1.50
2017-12-10T02:47:20.053Z,-1.50
2017-12-10T02:49:45.926Z,-1.53
2017-12-10T02:52:12.917Z,-1.52
2017-12-10T02:54:38.781Z,-1.58
2017-12-10T02:57:08.373Z,-1.56
2017-12-10T02:59:34.257Z,-1.63
2017-12-10T03:02:03.352Z,-1.64
2017-12-10T03:04:29.178Z,-1.61
2017-12-10T03:06:57.967Z,-1.58
2017-12-10T03:09:23.820Z,-1.55
2017-12-10T03:11:52.462Z,-1.58
2017-12-10T03:14:18.334Z,-1.54
2017-12-10T03:16:46.396Z,-1.50
2017-12-10T03:19:12.239Z,-1.47
2017-12-10T03:21:38.082Z,-1.42
2017-12-10T03:24:04.526Z,-1.41
2017-12-10T03:26:30.374Z,-1.40
2017-12-10T03:28:58.423Z,-1.37
2017-12-10T03:31:24.298Z,-1.38
2017-12-10T03:33:52.592Z,-1.35
2017-12-10T03:36:18.471Z,-1.34
2017-12-10T03:38:47.122Z,-1.19
2017-12-10T03:41:12.971Z,-1.24
2017-12-10T03:46:09.653Z,-1.04
2017-12-10T03:48:38.598Z,-0.98
2017-12-10T03:51:04.472Z,-1.00
2017-12-10T03:53:31.672Z,-0.92
2017-12-10T03:55:57.560Z,-0.86
2017-12-10T03:58:23.456Z,-0.87
2017-12-10T04:00:49.334Z,-0.88
2017-12-10T04:03:15.157Z,-0.83
2017-12-10T04:05:44.055Z,-0.95
2017-12-10T04:08:09.916Z,-0.90
2017-12-10T04:10:38.893Z,-0.82
2017-12-10T04:13:04.785Z,-0.83
2017-12-10T04:15:32.804Z,-0.78
2017-12-10T04:17:58.685Z,-0.77
2017-12-10T04:20:28.097Z,-0.73
2017-12-10T04:22:53.964Z,-0.82
2017-12-10T04:25:22.866Z,-0.88
2017-12-10T04:27:48.728Z,-0.95
2017-12-10T04:30:17.168Z,-0.99
2017-12-10T04:32:43.016Z,-1.14
2017-12-10T04:35:08.915Z,-1.05
2017-12-10T04:37:34.754Z,-0.94
2017-12-10T04:40:00.564Z,-0.85
2017-12-10T04:42:30.181Z,-0.79
2017-12-10T04:44:56.088Z,-0.76
2017-12-10T04:47:25.271Z,-0.74
2017-12-10T04:49:51.105Z,-0.76
2017-12-10T04:52:18.911Z,-0.78
2017-12-10T04:54:44.753Z,-0.77
2017-12-10T04:57:12.945Z,-0.74
2017-12-10T04:59:38.782Z,-0.78
2017-12-10T05:02:09.136Z,-0.78
2017-12-10T05:04:35.542Z,-0.86
2017-12-10T05:07:02.724Z,-0.91
2017-12-10T05:09:28.634Z,-0.89
2017-12-10T05:11:54.514Z,-0.95
2017-12-10T05:14:20.420Z,-0.89
2017-12-10T05:16:46.297Z,-0.87
2017-12-10T05:19:14.274Z,-0.83
2017-12-10T05:21:40.164Z,-0.85
2017-12-10T05:24:09.297Z,-0.83
2017-12-10T05:26:35.236Z,-0.71
2017-12-10T05:29:04.156Z,-0.71
2017-12-10T05:31:30.303Z,-0.67
2017-12-10T05:33:59.048Z,-0.69
2017-12-10T05:36:24.915Z,-0.72
2017-12-10T05:38:53.845Z,-0.73
2017-12-10T05:41:19.728Z,-0.68
2017-12-10T05:43:47.694Z,-0.59
2017-12-10T05:46:13.491Z,-0.53
2017-12-10T05:48:39.344Z,-0.50
2017-12-10T05:51:05.187Z,-0.48
2017-12-10T05:53:31.064Z,-0.49
2017-12-10T05:55:59.588Z,-0.58
2017-12-10T05:58:37.495Z,-0.64
2017-12-10T06:01:03.409Z,-0.69
2017-12-10T06:03:29.300Z,-0.70
2017-12-10T06:05:55.189Z,-0.72
2017-12-10T06:08:21.035Z,-0.74
2017-12-10T06:10:46.906Z,-0.76
2017-12-10T06:13:12.746Z,-0.76
2017-12-10T06:15:38.640Z,-0.79
2017-12-10T06:18:04.541Z,-0.81
2017-12-10T06:20:33.726Z,-0.78
2017-12-10T06:22:59.556Z,-0.67
2017-12-10T06:25:25.473Z,-0.63
2017-12-10T06:27:51.395Z,-0.54
2017-12-10T06:30:17.242Z,-0.51
2017-12-10T06:32:44.854Z,-0.40
2017-12-10T06:35:10.669Z,-0.42
2017-12-10T06:37:39.108Z,-0.43
2017-12-10T06:40:05.005Z,-0.47
2017-12-10T06:42:33.933Z,-0.48
2017-12-10T06:44:59.820Z,-0.72
2017-12-10T06:47:28.494Z,-0.86
2017-12-10T06:49:54.288Z,-0.90
2017-12-10T06:52:20.977Z,-1.05
2017-12-10T06:54:48.919Z,-1.07
2017-12-10T06:57:18.065Z,-1.16
2017-12-10T06:59:43.952Z,-1.16
2017-12-10T07:02:09.794Z,-1.10
2017-12-10T07:04:35.630Z,-1.09
2017-12-10T07:07:01.494Z,-1.06
2017-12-10T07:09:30.847Z,-1.11
2017-12-10T07:11:56.713Z,-1.16
2017-12-10T07:14:24.407Z,-1.19
2017-12-10T07:16:50.239Z,-1.25
2017-12-10T07:21:46.805Z,-1.20
2017-12-10T07:24:15.783Z,-1.22
2017-12-10T07:26:41.685Z,-1.21
2017-12-10T07:29:08.830Z,-1.18
2017-12-10T07:31:34.628Z,-1.16
2017-12-10T07:34:03.378Z,-1.12
2017-12-10T07:36:29.585Z,-1.15
2017-12-10T07:38:55.503Z,-1.11
2017-12-10T07:41:21.334Z,-0.98
2017-12-10T07:43:47.147Z,-0.49
2017-12-10T07:46:16.241Z,-0.32
2017-12-10T07:48:42.109Z,-0.50
2017-12-10T07:51:09.651Z,-0.76
2017-12-10T07:53:35.475Z,-0.88
2017-12-10T07:56:02.098Z,-0.94
2017-12-10T07:58:30.008Z,-0.99
2017-12-10T08:03:26.674Z,-1.11
2017-12-10T08:05:55.783Z,-1.11
2017-12-10T08:08:21.692Z,-1.09
2017-12-10T08:10:49.790Z,-1.05
2017-12-10T08:13:15.624Z,-1.04
2017-12-10T08:15:41.513Z,-1.08
2017-12-10T08:18:07.305Z,-1.04
2017-12-10T08:20:33.145Z,-1.04
2017-12-10T08:23:00.784Z,-1.03
2017-12-10T08:25:26.754Z,-1.08
2017-12-10T08:27:56.533Z,-1.06
2017-12-10T08:30:22.347Z,-0.99
2017-12-10T08:32:50.952Z,-0.97
2017-12-10T08:35:16.879Z,-0.99
2017-12-10T08:37:45.713Z,-0.95
2017-12-10T08:40:11.543Z,-0.89
2017-12-10T08:42:39.677Z,-0.89
2017-12-10T08:45:05.490Z,-0.86
2017-12-10T08:47:35.106Z,-0.83
2017-12-10T08:50:00.962Z,-0.82
2017-12-10T08:52:26.871Z,-0.84
2017-12-10T08:54:52.878Z,-0.92
2017-12-10T08:57:18.762Z,-0.93
2017-12-10T08:59:46.477Z,-0.85
2017-12-10T09:02:12.397Z,-0.75
2017-12-10T09:04:41.597Z,-0.76
2017-12-10T09:07:07.436Z,-0.69
2017-12-10T09:09:35.490Z,-0.63
2017-12-10T09:12:01.381Z,-0.76
2017-12-10T09:14:30.440Z,-0.71
2017-12-10T09:16:56.293Z,-0.68
2017-12-10T09:19:25.449Z,-0.61
2017-12-10T09:21:51.356Z,-0.67
2017-12-10T09:24:20.498Z,-0.73
2017-12-10T09:26:47.180Z,-0.73
2017-12-10T09:29:13.078Z,-0.73
2017-12-10T09:31:38.951Z,-0.69
2017-12-10T09:34:04.768Z,-0.95
2017-12-10T09:36:31.132Z,-1.03
2017-12-10T09:38:56.993Z,-1.06
2017-12-10T09:41:26.412Z,-1.23
2017-12-10T09:43:52.270Z,-1.41
2017-12-10T09:46:21.815Z,-1.66
2017-12-10T09:48:47.722Z,-1.79
2017-12-10T09:51:16.381Z,-1.85
2017-12-10T09:53:42.251Z,-2.03
2017-12-10T09:56:09.806Z,-1.97
2017-12-10T09:58:35.621Z,-2.05
2017-12-10T10:03:32.251Z,-2.08
2017-12-10T10:05:58.177Z,-2.11
2017-12-10T10:08:24.036Z,-2.11
2017-12-10T10:10:49.950Z,-2.16
2017-12-10T10:13:16.531Z,-2.10
2017-12-10T10:15:42.348Z,-2.12
2017-12-10T10:18:12.573Z,-2.16
2017-12-10T10:20:38.421Z,-2.14
2017-12-10T10:23:07.281Z,-2.13
2017-12-10T10:25:33.146Z,-2.13
2017-12-10T10:28:02.444Z,-2.19
2017-12-10T10:30:28.262Z,-2.18
2017-12-10T10:32:55.591Z,-2.16
2017-12-10T10:35:21.505Z,-2.22
2017-12-10T10:37:50.474Z,-2.15
2017-12-10T10:40:16.277Z,-2.18
2017-12-10T10:42:42.106Z,-2.21
2017-12-10T10:45:07.939Z,-2.17
2017-12-10T10:47:33.788Z,-2.19
2017-12-10T10:50:02.665Z,-2.14
2017-12-10T10:52:28.514Z,-2.04
2017-12-10T10:54:57.490Z,-2.00
2017-12-10T10:57:23.340Z,-2.09
2017-12-10T10:59:51.085Z,-2.12
2017-12-10T11:02:16.933Z,-2.10
2017-12-10T11:04:46.053Z,-2.16
2017-12-10T11:07:11.907Z,-2.06
2017-12-10T11:09:41.822Z,-1.96
2017-12-10T11:12:07.653Z,-1.90
2017-12-10T11:14:35.231Z,-2.04
2017-12-10T11:17:01.120Z,-1.99
2017-12-10T11:19:26.955Z,-1.89
2017-12-10T11:21:52.829Z,-1.91
2017-12-10T11:24:18.676Z,-1.88
2017-12-10T11:26:47.996Z,-1.79
2017-12-10T11:29:13.880Z,-1.72
2017-12-10T11:31:41.608Z,-1.76
2017-12-10T11:34:07.473Z,-1.75
2017-12-10T11:36:36.161Z,-1.73
2017-12-10T11:39:02.023Z,-1.69
2017-12-10T11:43:58.645Z,-1.67
2017-12-10T11:46:26.208Z,-1.63
2017-12-10T11:48:52.013Z,-1.61
2017-12-10T11:51:21.304Z,-1.54
2017-12-10T11:53:47.183Z,-1.49
2017-12-10T11:56:12.997Z,-1.45
2017-12-10T11:58:38.896Z,-1.35
2017-12-10T12:01:04.743Z,-1.29
2017-12-10T12:03:32.268Z,-1.13
2017-12-10T12:05:58.176Z,-1.05
2017-12-10T12:08:30.864Z,-0.97
2017-12-10T12:10:56.672Z,-0.83
2017-12-10T12:13:22.539Z,-0.80
2017-12-10T12:15:48.369Z,-0.66
2017-12-10T12:18:18.120Z,-0.51
2017-12-10T12:20:43.903Z,-0.48
2017-12-10T12:23:11.425Z,-0.40
2017-12-10T12:25:37.308Z,-0.27
2017-12-10T12:28:05.788Z,-0.16
2017-12-10T12:30:31.588Z,-0.09
2017-12-10T12:32:57.428Z,-0.02
2017-12-10T12:35:23.245Z,0.10
2017-12-10T12:37:49.119Z,0.19
2017-12-10T12:40:18.057Z,0.28
2017-12-10T12:42:43.967Z,0.22
2017-12-10T12:45:13.374Z,0.24
2017-12-10T12:47:39.261Z,0.22
2017-12-10T12:50:07.534Z,0.29
2017-12-10T12:52:33.377Z,0.41
2017-12-10T12:55:03.125Z,0.43
2017-12-10T12:57:28.934Z,0.48
2017-12-10T12:59:57.762Z,0.57
2017-12-10T13:02:23.600Z,0.66
2017-12-10T13:04:51.164Z,0.71
2017-12-10T13:07:17.008Z,0.77
2017-12-10T13:09:42.847Z,0.85
2017-12-10T13:12:08.747Z,0.87
2017-12-10T13:14:34.650Z,0.88
2017-12-10T13:17:03.752Z,0.93
2017-12-10T13:19:29.657Z,0.99
2017-12-10T13:21:59.400Z,1.07
2017-12-10T13:24:25.237Z,1.12
2017-12-10T13:26:52.586Z,1.19
2017-12-10T13:29:18.428Z,1.25
2017-12-10T13:31:47.029Z,1.31
2017-12-10T13:34:12.889Z,1.38
2017-12-10T13:36:45.633Z,1.49
2017-12-10T13:39:11.493Z,1.51
2017-12-10T13:41:37.329Z,1.63
2017-12-10T13:44:03.200Z,1.75
2017-12-10T13:46:29.056Z,1.78
2017-12-10T13:48:54.892Z,1.79
2017-12-10T13:51:20.727Z,1.82
2017-12-10T13:53:50.032Z,1.80
2017-12-10T13:56:15.926Z,1.84
2017-12-10T13:58:42.959Z,1.87
2017-12-10T14:01:08.760Z,1.90
2017-12-10T14:03:37.689Z,1.90
2017-12-10T14:06:03.563Z,1.95
2017-12-10T14:08:33.061Z,1.97
2017-12-10T14:10:58.946Z,1.95
2017-12-10T14:13:28.724Z,1.95
2017-12-10T14:15:54.562Z,1.96
2017-12-10T14:18:23.774Z,2.02
2017-12-10T14:20:49.592Z,2.02
2017-12-10T14:23:15.417Z,2.07
2017-12-10T14:25:41.266Z,2.10
2017-12-10T14:28:07.076Z,2.13
2017-12-10T14:30:34.500Z,2.18
2017-12-10T14:33:01.059Z,2.29
2017-12-10T14:35:28.503Z,2.34
2017-12-10T14:37:54.411Z,2.44
2017-12-10T14:40:23.649Z,2.51
2017-12-10T14:42:49.528Z,2.60
2017-12-10T14:45:19.088Z,2.70
2017-12-10T14:47:44.900Z,2.85
2017-12-10T14:50:12.563Z,2.89
2017-12-10T14:52:38.388Z,2.95
2017-12-10T14:55:07.200Z,3.04
2017-12-10T14:57:33.051Z,3.11
2017-12-10T14:59:58.921Z,3.24
2017-12-10T15:02:24.779Z,3.30
2017-12-10T15:04:50.627Z,3.33
2017-12-10T15:07:19.754Z,3.43
2017-12-10T15:09:45.638Z,3.61
2017-12-10T15:12:14.900Z,3.64
2017-12-10T15:14:40.813Z,3.70
2017-12-10T15:17:08.456Z,3.79
2017-12-10T15:19:34.284Z,3.81
2017-12-10T15:22:03.923Z,3.94
2017-12-10T15:24:29.855Z,4.02
2017-12-10T15:26:58.711Z,4.09
2017-12-10T15:29:24.578Z,4.22
2017-12-10T15:31:54.000Z,4.29
2017-12-10T15:34:19.858Z,4.34
2017-12-10T15:36:45.735Z,4.40
2017-12-10T15:39:11.747Z,4.54
2017-12-10T15:41:37.621Z,4.53
2017-12-10T15:44:04.840Z,4.60
2017-12-10T15:46:30.748Z,4.73
2017-12-10T15:49:00.211Z,4.93
2017-12-10T15:51:26.127Z,5.08
2017-12-10T15:53:53.695Z,5.31
2017-12-10T15:56:19.601Z,5.47
2017-12-10T15:58:48.753Z,5.61
2017-12-10T16:01:14.694Z,5.74
2017-12-10T16:03:43.854Z,5.82
2017-12-10T16:06:09.686Z,5.88
2017-12-10T16:08:37.697Z,5.98
2017-12-10T16:11:03.612Z,5.99
2017-12-10T16:13:29.485Z,6.00
2017-12-10T16:15:55.396Z,6.04
2017-12-10T16:18:21.251Z,6.14
2017-12-10T16:20:50.379Z,6.15
2017-12-10T16:23:16.243Z,6.24
2017-12-10T16:25:45.946Z,6.28
2017-12-10T16:28:11.828Z,6.29
2017-12-10T16:30:39.593Z,6.28
2017-12-10T16:33:06.816Z,6.34
2017-12-10T16:35:34.064Z,6.30
2017-12-10T16:37:59.939Z,6.33
2017-12-10T16:40:29.411Z,6.32
2017-12-10T16:42:55.282Z,6.30
2017-12-10T16:45:24.041Z,6.38
2017-12-10T16:47:49.924Z,6.29
2017-12-10T16:50:15.791Z,6.25
2017-12-10T16:52:41.709Z,6.22
2017-12-10T16:55:07.590Z,6.19
2017-12-10T16:57:36.651Z,6.16
2017-12-10T17:00:02.493Z,6.10
2017-12-10T17:02:30.137Z,6.01
2017-12-10T17:04:56.053Z,6.04
2017-12-10T17:07:24.414Z,6.02
2017-12-10T17:09:50.335Z,6.03
2017-12-10T17:12:19.399Z,5.94
2017-12-10T17:14:45.230Z,5.80
2017-12-10T17:17:14.138Z,5.68
2017-12-10T17:19:40.064Z,5.62
2017-12-10T17:22:09.193Z,5.64
2017-12-10T17:24:35.063Z,5.72
2017-12-10T17:27:00.943Z,5.84
2017-12-10T17:29:26.840Z,5.89
2017-12-10T17:31:52.680Z,5.93
2017-12-10T17:34:21.731Z,5.94
2017-12-10T17:36:47.673Z,6.02
2017-12-10T17:39:16.674Z,6.03
2017-12-10T17:41:42.604Z,6.08
2017-12-10T17:44:09.947Z,6.17
2017-12-10T17:46:35.818Z,6.15
2017-12-10T17:49:04.841Z,6.22
2017-12-10T17:51:30.678Z,6.30
2017-12-10T17:54:00.496Z,6.24
2017-12-10T17:56:26.380Z,6.36
2017-12-10T17:58:55.568Z,6.36
2017-12-10T18:01:21.434Z,6.35
2017-12-10T18:03:47.294Z,6.40
2017-12-10T18:06:13.160Z,6.46
2017-12-10T18:08:38.991Z,6.55
2017-12-10T18:11:05.752Z,6.67
2017-12-10T18:13:31.599Z,6.66
2017-12-10T18:16:01.101Z,6.85
2017-12-10T18:18:26.945Z,6.91
2017-12-10T18:20:55.012Z,6.92
2017-12-10T18:23:20.862Z,6.94
2017-12-10T18:25:50.528Z,6.97
2017-12-10T18:28:16.361Z,6.97
2017-12-10T18:30:45.838Z,6.99
2017-12-10T18:33:11.885Z,7.02
2017-12-10T18:35:39.195Z,7.00
2017-12-10T18:38:05.038Z,6.97
2017-12-10T18:40:30.948Z,7.03
2017-12-10T18:42:56.851Z,7.07
2017-12-10T18:45:22.735Z,7.12
2017-12-10T18:47:50.991Z,7.16
2017-12-10T18:50:16.840Z,7.15
2017-12-10T18:52:46.072Z,7.21
2017-12-10T18:55:11.970Z,7.17
2017-12-10T18:57:40.377Z,7.20
2017-12-10T19:00:06.283Z,7.27
2017-12-10T19:02:35.744Z,7.31
2017-12-10T19:05:01.641Z,7.35
2017-12-10T19:07:29.313Z,7.41
2017-12-10T19:09:55.189Z,7.32
2017-12-10T19:14:52.095Z,7.27
2017-12-10T19:17:18.019Z,7.28
2017-12-10T19:19:43.802Z,7.31
2017-12-10T19:22:09.660Z,7.26
2017-12-10T19:24:36.967Z,7.29
2017-12-10T19:27:02.813Z,7.22
2017-12-10T19:29:30.508Z,7.15
2017-12-10T19:31:56.409Z,7.16
2017-12-10T19:36:53.062Z,7.17
2017-12-10T19:39:20.915Z,7.17
2017-12-10T19:41:46.787Z,7.18
2017-12-10T19:44:16.269Z,7.08
2017-12-10T19:46:42.149Z,7.10
2017-12-10T19:49:11.137Z,7.08
2017-12-10T19:51:36.983Z,7.01
2017-12-10T19:54:02.876Z,6.94
2017-12-10T19:56:28.726Z,6.94
2017-12-10T19:58:54.589Z,6.90
2017-12-10T20:01:22.101Z,6.93
2017-12-10T20:03:47.988Z,6.84
2017-12-10T20:06:17.825Z,6.80
2017-12-10T20:08:43.662Z,6.83
2017-12-10T20:11:11.379Z,6.80
2017-12-10T20:13:37.254Z,6.81
2017-12-10T20:16:06.297Z,6.83
2017-12-10T20:18:32.146Z,6.89
2017-12-10T20:21:01.719Z,6.86
2017-12-10T20:23:27.590Z,6.88
2017-12-10T20:25:55.043Z,6.83
2017-12-10T20:28:21.607Z,6.83
2017-12-10T20:30:47.479Z,6.82
2017-12-10T20:33:15.138Z,6.81
2017-12-10T20:35:41.125Z,6.75
2017-12-10T20:38:06.995Z,6.76
2017-12-10T20:40:32.881Z,6.74
2017-12-10T20:43:01.811Z,6.75
2017-12-10T20:45:27.702Z,6.78
2017-12-10T20:47:56.852Z,6.82
2017-12-10T20:50:22.727Z,6.74
2017-12-10T20:52:52.437Z,6.72
2017-12-10T20:55:18.266Z,6.70
2017-12-10T20:57:45.519Z,6.72
2017-12-10T21:00:11.427Z,6.75
2017-12-10T21:02:40.673Z,6.76
2017-12-10T21:05:06.559Z,6.78
2017-12-10T21:07:32.431Z,6.78
2017-12-10T21:09:58.272Z,6.82
2017-12-10T21:12:24.157Z,6.79
2017-12-10T21:14:52.702Z,6.81
2017-12-10T21:17:18.591Z,6.85
2017-12-10T21:19:48.465Z,6.86
2017-12-10T21:22:14.297Z,6.92
2017-12-10T21:24:41.681Z,6.93
2017-12-10T21:27:07.598Z,6.95
2017-12-10T21:29:36.955Z,6.98
2017-12-10T21:32:02.818Z,6.97
2017-12-10T21:34:30.883Z,6.95
2017-12-10T21:36:56.744Z,6.95
2017-12-10T21:39:25.470Z,6.94
2017-12-10T21:41:51.345Z,6.97
2017-12-10T21:44:17.233Z,6.97
2017-12-10T21:46:43.100Z,6.99
2017-12-10T21:49:09.025Z,7.03
2017-12-10T21:51:37.492Z,7.07
2017-12-10T21:54:03.364Z,7.07
2017-12-10T21:56:32.439Z,7.06
2017-12-10T21:58:58.308Z,7.05
2017-12-10T22:01:26.835Z,7.02
2017-12-10T22:03:52.699Z,7.02
2017-12-10T22:06:21.335Z,6.97
2017-12-10T22:08:47.136Z,7.03
2017-12-10T22:11:16.239Z,7.00
2017-12-10T22:13:42.120Z,7.02
2017-12-10T22:16:11.194Z,7.06
2017-12-10T22:18:37.053Z,7.11
2017-12-10T22:21:02.891Z,7.08
2017-12-10T22:23:28.756Z,7.18
2017-12-10T22:25:54.662Z,7.15
2017-12-10T22:28:22.854Z,7.14
2017-12-10T22:30:48.658Z,7.16
2017-12-10T22:33:17.659Z,7.17
2017-12-10T22:35:43.563Z,7.14
2017-12-10T22:38:11.942Z,7.13
2017-12-10T22:40:37.765Z,7.12
2017-12-10T22:43:07.290Z,7.10
2017-12-10T22:45:33.087Z,7.12
2017-12-10T22:48:02.011Z,7.09
2017-12-10T22:50:27.855Z,7.11
2017-12-10T22:52:56.806Z,7.12
2017-12-10T22:55:22.673Z,7.13
2017-12-10T22:57:48.505Z,7.15
2017-12-10T23:00:14.451Z,7.13
2017-12-10T23:02:40.267Z,7.11
2017-12-10T23:05:08.890Z,7.06
2017-12-10T23:07:34.726Z,6.99
2017-12-10T23:10:04.022Z,6.95
2017-12-10T23:12:29.903Z,6.91
2017-12-10T23:15:10.008Z,6.86
2017-12-10T23:17:35.820Z,6.82
2017-12-10T23:20:01.699Z,6.84
2017-12-10T23:22:27.511Z,6.82
2017-12-10T23:24:53.334Z,6.80
2017-12-10T23:27:19.178Z,6.80
2017-12-10T23:29:45.042Z,6.81
2017-12-10T23:32:10.877Z,6.78
2017-12-10T23:34:36.780Z,6.76
2017-12-10T23:37:02.678Z,6.77
2017-12-10T23:39:28.532Z,6.69
2017-12-10T23:41:54.368Z,6.66
2017-12-10T23:44:20.222Z,6.68
2017-12-10T23:46:47.760Z,6.64
2017-12-10T23:49:13.646Z,6.58
2017-12-10T23:51:42.589Z,6.57
2017-12-10T23:54:08.479Z,6.60
2017-12-10T23:56:37.241Z,6.56
2017-12-10T23:59:03.081Z,6.52
